Time;durP1;ratioP1;P1;durP2;ratioP2;P2;SDS_P1;SDS_P2;PMS_P1;PMS_P2;Temp;Humidity;BMP_temperature;BMP_pressure;BME280_temperature;BME280_humidity;BME280_pressure;Samples;Min_cycle;Max_cycle;Signal;HPM_P1;HPM_P2
2023/12/29 00:01:15;;;;;;;8.73;2.28;;;;;;;10.72;93.63;100721.59;5013509;28;20036;-82
2023/12/29 00:03:40;;;;;;;11.50;2.70;;;;;;;10.63;93.38;100704.78;5013438;28;20065;-83
2023/12/29 00:06:06;;;;;;;11.13;2.80;;;;;;;10.71;93.68;100713.66;5011913;28;20038;-82
2023/12/29 00:08:31;;;;;;;8.90;2.53;;;;;;;10.70;93.29;100706.56;4995802;28;20088;-83
2023/12/29 00:10:57;;;;;;;7.28;2.20;;;;;;;10.75;93.62;100724.25;5012154;28;20030;-83
2023/12/29 00:13:23;;;;;;;11.27;2.38;;;;;;;10.71;94.28;100722.47;5013402;28;20161;-83
2023/12/29 00:15:52;;;;;;;10.90;2.28;;;;;;;10.68;93.81;100716.25;5013221;28;20058;-83
2023/12/29 00:18:18;;;;;;;9.38;2.67;;;;;;;10.70;93.64;100693.38;5013329;28;20034;-83
2023/12/29 00:20:43;;;;;;;8.93;2.30;;;;;;;10.72;93.47;100702.22;5011975;28;20033;-82
2023/12/29 00:23:09;;;;;;;10.82;2.70;;;;;;;10.80;93.50;100721.66;5012139;28;20448;-82
2023/12/29 00:25:37;;;;;;;9.63;2.70;;;;;;;10.85;93.78;100721.69;5013457;28;20486;-83
2023/12/29 00:28:04;;;;;;;6.32;2.28;;;;;;;10.78;94.01;100707.53;5012109;28;20432;-83
2023/12/29 00:30:29;;;;;;;11.60;2.78;;;;;;;10.76;94.20;100739.25;5012056;28;20038;-83
2023/12/29 00:32:58;;;;;;;6.63;2.22;;;;;;;10.75;93.97;100697.84;5012015;28;20544;-83
2023/12/29 00:35:23;;;;;;;11.30;2.58;;;;;;;10.76;94.16;100709.28;5012929;28;20026;-83
2023/12/29 00:37:50;;;;;;;16.75;2.88;;;;;;;10.68;93.93;100684.56;5013121;28;20536;-83
2023/12/29 00:40:16;;;;;;;8.18;2.40;;;;;;;10.74;94.71;100706.63;5011862;28;20066;-83
2023/12/29 00:42:41;;;;;;;11.15;2.65;;;;;;;10.72;95.17;100702.22;5013411;28;20479;-83
2023/12/29 00:45:07;;;;;;;8.57;2.53;;;;;;;10.70;94.59;100686.31;5013093;28;20034;-82
2023/12/29 00:47:33;;;;;;;14.13;2.58;;;;;;;10.70;95.11;100681.03;5011722;28;20038;-83
2023/12/29 00:50:00;;;;;;;10.98;2.60;;;;;;;10.67;95.71;100682.78;5013115;28;20109;-83
2023/12/29 00:52:26;;;;;;;10.00;2.65;;;;;;;10.70;96.31;100682.78;5013069;28;20057;-83
2023/12/29 00:54:51;;;;;;;11.40;2.65;;;;;;;10.66;96.75;100704.78;5012343;28;20065;-83
2023/12/29 00:57:16;;;;;;;13.98;2.42;;;;;;;10.64;97.06;100691.56;5015436;28;20037;-84
2023/12/29 00:59:43;;;;;;;8.07;2.40;;;;;;;10.55;98.20;100693.25;5016729;28;20490;-83
2023/12/29 01:02:09;;;;;;;10.23;2.30;;;;;;;10.49;98.86;100676.50;5015560;28;20030;-83
2023/12/29 01:04:37;;;;;;;10.15;2.38;;;;;;;10.50;99.15;100678.25;5015216;28;20131;-83
2023/12/29 01:07:03;;;;;;;13.35;2.55;;;;;;;10.35;100.00;100685.16;5016425;28;20160;-83
2023/12/29 01:09:28;;;;;;;10.50;2.30;;;;;;;10.26;100.00;100670.09;5016269;28;20033;-84
2023/12/29 01:11:54;;;;;;;11.73;2.65;;;;;;;10.28;100.00;100695.66;5016468;28;20057;-83
2023/12/29 01:14:19;;;;;;;11.48;2.72;;;;;;;10.20;100.00;100685.88;5016124;28;20066;-83
2023/12/29 01:16:45;;;;;;;9.63;2.63;;;;;;;10.20;100.00;100693.78;5015007;28;20491;-84
2023/12/29 01:19:10;;;;;;;9.63;2.60;;;;;;;10.03;100.00;100683.94;5016359;28;20030;-83
2023/12/29 01:21:38;;;;;;;11.75;3.17;;;;;;;9.99;100.00;100681.25;5016269;28;20026;-83
2023/12/29 01:24:04;;;;;;;9.73;2.40;;;;;;;9.91;100.00;100691.72;5016290;28;20037;-83
2023/12/29 01:26:30;;;;;;;12.57;3.08;;;;;;;9.83;100.00;100695.16;5016125;28;20045;-83
2023/12/29 01:28:55;;;;;;;10.90;2.70;;;;;;;9.68;100.00;100680.94;5014860;28;20030;-83
2023/12/29 01:31:22;;;;;;;9.48;2.95;;;;;;;9.76;100.00;100715.28;5016140;28;20037;-83
2023/12/29 01:33:47;;;;;;;10.93;2.50;;;;;;;9.70;100.00;100702.91;5016095;28;20117;-83
2023/12/29 01:36:19;;;;;;;10.82;2.35;;;;;;;9.52;100.00;100679.84;5015779;28;20038;-83
2023/12/29 01:38:44;;;;;;;9.67;2.47;;;;;;;9.51;100.00;100666.66;4998506;28;20045;-83
2023/12/29 01:41:09;;;;;;;7.97;2.30;;;;;;;9.48;100.00;100671.88;5016001;28;20034;-82
2023/12/29 01:43:35;;;;;;;10.32;2.70;;;;;;;9.50;100.00;100692.13;5014443;28;20088;-82
2023/12/29 01:46:00;;;;;;;13.35;2.75;;;;;;;9.24;100.00;100643.44;5015452;28;20037;-82
2023/12/29 01:48:26;;;;;;;12.23;3.08;;;;;;;9.40;100.00;100703.41;5014206;28;20041;-82
2023/12/29 01:50:53;;;;;;;8.90;2.83;;;;;;;9.39;100.00;100667.38;5015827;28;20026;-82
2023/12/29 01:53:19;;;;;;;10.95;3.28;;;;;;;9.25;100.00;100672.47;5015411;28;20394;-83
2023/12/29 01:55:45;;;;;;;13.50;2.83;;;;;;;9.36;100.00;100672.59;5015435;28;20092;-82
2023/12/29 01:58:11;;;;;;;10.02;2.40;;;;;;;9.36;100.00;100682.28;5015492;28;20084;-82
2023/12/29 02:00:37;;;;;;;20.30;3.53;;;;;;;9.35;100.00;100681.38;5015615;28;20038;-82
2023/12/29 02:03:02;;;;;;;12.07;2.63;;;;;;;9.31;100.00;100666.38;5015249;28;20037;-81
2023/12/29 02:05:30;;;;;;;11.57;2.40;;;;;;;9.32;100.00;100665.50;5015194;28;20058;-82
2023/12/29 02:07:56;;;;;;;13.38;2.60;;;;;;;9.19;100.00;100637.22;5015397;28;20026;-82
2023/12/29 02:10:22;;;;;;;8.07;2.63;;;;;;;9.23;100.00;100641.66;5015126;28;20034;-82
2023/12/29 02:12:54;;;;;;;8.57;2.40;;;;;;;9.43;100.00;100670.94;5015344;28;20470;-82
2023/12/29 02:15:19;;;;;;;13.75;3.17;;;;;;;9.45;100.00;100682.38;5015198;28;20382;-82
2023/12/29 02:17:50;;;;;;;10.85;2.63;;;;;;;9.43;100.00;100681.50;5015384;28;20068;-82
2023/12/29 02:20:16;;;;;;;8.70;2.42;;;;;;;9.48;100.00;100695.63;5015191;28;20390;-82
2023/12/29 02:22:41;;;;;;;10.07;2.40;;;;;;;9.50;100.00;100678.91;5013692;28;20026;-82
2023/12/29 02:25:07;;;;;;;9.80;2.28;;;;;;;9.49;100.00;100663.09;5013812;28;20466;-82
2023/12/29 02:27:55;;;;;;;15.77;2.75;;;;;;;9.50;100.00;100675.41;5013586;28;20034;-82
2023/12/29 02:30:37;;;;;;;8.63;2.30;;;;;;;9.59;100.00;100682.53;5015327;28;20036;-82
2023/12/29 02:33:07;;;;;;;10.77;2.27;;;;;;;9.50;100.00;100649.91;5015073;28;20038;-82
2023/12/29 02:35:37;;;;;;;13.18;2.78;;;;;;;9.62;100.00;100666.75;5014999;28;20038;-82
2023/12/29 02:38:05;;;;;;;6.93;2.25;;;;;;;9.66;100.00;100655.38;5014925;28;20059;-82
2023/12/29 02:40:30;;;;;;;10.65;2.40;;;;;;;9.69;100.00;100653.66;5013697;28;20041;-82
2023/12/29 02:42:56;;;;;;;11.25;2.30;;;;;;;9.66;100.00;100664.19;5014865;28;20026;-82
2023/12/29 02:45:21;;;;;;;12.75;2.45;;;;;;;9.78;100.00;100676.63;5014739;28;20138;-82
2023/12/29 02:47:48;;;;;;;11.95;2.78;;;;;;;9.67;100.00;100652.75;5013176;28;20056;-82
2023/12/29 02:50:13;;;;;;;10.80;2.50;;;;;;;9.77;100.00;100662.56;5013284;28;20042;-82
2023/12/29 02:52:39;;;;;;;6.35;2.00;;;;;;;9.83;100.00;100680.19;5014143;28;20038;-82
2023/12/29 02:55:04;;;;;;;11.23;2.88;;;;;;;9.88;100.00;100682.88;5014307;28;20113;-82
2023/12/29 02:57:30;;;;;;;10.60;2.28;;;;;;;9.89;100.00;100668.81;4996741;28;20126;-83
2023/12/29 02:59:56;;;;;;;9.40;2.30;;;;;;;9.86;100.00;100658.25;5013800;28;20064;-82
2023/12/29 03:02:22;;;;;;;12.15;3.08;;;;;;;9.93;100.00;100673.25;5014176;28;20030;-82
2023/12/29 03:04:47;;;;;;;8.35;2.25;;;;;;;9.94;100.00;100670.66;5013884;28;20030;-82
2023/12/29 03:07:13;;;;;;;12.43;2.63;;;;;;;9.89;100.00;100656.53;5014051;28;20034;-83
2023/12/29 03:09:38;;;;;;;11.63;2.30;;;;;;;9.93;100.00;100657.41;5012954;28;20034;-83
2023/12/29 03:12:04;;;;;;;9.35;2.45;;;;;;;9.96;100.00;100657.47;5014327;28;20058;-83
2023/12/29 03:14:29;;;;;;;9.07;2.15;;;;;;;10.02;100.00;100668.97;5012377;28;20474;-83
2023/12/29 03:16:55;;;;;;;11.15;2.30;;;;;;;9.81;100.00;100631.81;5013803;28;20050;-83
2023/12/29 03:19:20;;;;;;;8.82;2.28;;;;;;;10.03;100.00;100673.38;5013439;28;20478;-83
2023/12/29 03:21:46;;;;;;;10.25;2.50;;;;;;;10.04;100.00;100661.06;5013548;28;20542;-83
2023/12/29 03:24:11;;;;;;;9.35;2.58;;;;;;;9.97;100.00;100648.66;5013618;28;20125;-83
2023/12/29 03:26:37;;;;;;;12.98;2.45;;;;;;;10.01;100.00;100671.59;5013787;28;20030;-83
2023/12/29 03:29:02;;;;;;;8.95;2.30;;;;;;;9.88;100.00;100630.97;4996005;28;20038;-83
2023/12/29 03:31:27;;;;;;;10.80;2.58;;;;;;;10.11;100.00;100672.59;5012648;28;20061;-83
2023/12/29 03:33:53;;;;;;;11.57;2.50;;;;;;;9.98;100.00;100651.34;5013756;28;20091;-82
2023/12/29 03:36:18;;;;;;;12.98;2.83;;;;;;;10.11;100.00;100665.53;5013713;28;20379;-83
2023/12/29 03:38:44;;;;;;;13.55;2.72;;;;;;;10.09;100.00;100671.66;5013415;28;20038;-82
2023/12/29 03:41:09;;;;;;;11.75;2.65;;;;;;;10.07;100.00;100657.59;5013377;28;20497;-82
2023/12/29 03:43:34;;;;;;;13.77;2.80;;;;;;;10.06;100.00;100659.31;5012512;28;20474;-83
2023/12/29 03:46:00;;;;;;;11.05;2.60;;;;;;;9.96;100.00;100657.47;5013144;28;20034;-83
2023/12/29 03:48:25;;;;;;;9.15;2.40;;;;;;;10.06;100.00;100671.63;4995980;28;20030;-83
2023/12/29 03:50:51;;;;;;;11.70;2.45;;;;;;;9.99;100.00;100650.47;5013659;28;20037;-83
2023/12/29 03:53:16;;;;;;;11.25;2.70;;;;;;;10.10;100.00;100653.19;5013933;28;20038;-83
2023/12/29 03:55:42;;;;;;;8.65;2.28;;;;;;;10.11;100.00;100656.75;5013570;28;20034;-83
2023/12/29 03:58:07;;;;;;;13.68;2.50;;;;;;;10.14;100.00;100652.34;5012168;28;20061;-83
2023/12/29 04:00:32;;;;;;;11.48;2.63;;;;;;;10.04;100.00;100647.88;5012439;28;20431;-83
2023/12/29 04:02:58;;;;;;;10.25;2.58;;;;;;;10.11;100.00;100652.34;5012338;28;20084;-83
2023/12/29 04:05:23;;;;;;;12.75;2.53;;;;;;;10.16;100.00;100653.25;5013661;28;20037;-83
2023/12/29 04:07:49;;;;;;;10.60;2.80;;;;;;;10.00;100.00;100638.16;5028547;28;20392;-82
2023/12/29 04:10:14;;;;;;;9.15;2.35;;;;;;;9.99;100.00;100633.75;5012671;28;20486;-83
2023/12/29 04:12:40;;;;;;;9.05;2.47;;;;;;;9.93;100.00;100615.19;5014039;28;20076;-83
2023/12/29 04:15:06;;;;;;;12.20;2.50;;;;;;;10.13;100.00;100640.03;5013409;28;20041;-83
2023/12/29 04:17:31;;;;;;;13.70;2.72;;;;;;;10.17;100.00;100657.66;5012177;28;20510;-82
2023/12/29 04:19:57;;;;;;;8.18;2.40;;;;;;;10.09;100.00;100637.34;5012304;28;20030;-83
2023/12/29 04:22:22;;;;;;;11.45;3.00;;;;;;;9.94;100.00;100615.22;5012271;28;20038;-83
2023/12/29 04:24:48;;;;;;;9.52;2.47;;;;;;;10.09;100.00;100640.88;5012479;28;20041;-83
2023/12/29 04:27:17;;;;;;;11.20;2.30;;;;;;;10.07;100.00;100633.81;5013217;28;20502;-84
2023/12/29 04:29:44;;;;;;;9.90;2.50;;;;;;;10.15;100.00;100650.59;5014520;28;20026;-83
2023/12/29 04:32:09;;;;;;;12.02;2.63;;;;;;;10.08;100.00;100640.88;5017808;28;20032;-82
2023/12/29 04:34:35;;;;;;;15.80;2.83;;;;;;;10.04;100.00;100630.28;5017156;28;20034;-83
2023/12/29 04:37:00;;;;;;;11.50;2.60;;;;;;;10.13;100.00;100655.88;5017510;28;20463;-83
2023/12/29 04:39:25;;;;;;;14.77;2.50;;;;;;;10.06;100.00;100642.59;5017462;28;20026;-82
2023/12/29 04:41:51;;;;;;;18.70;2.65;;;;;;;9.96;100.00;100624.03;4999656;28;20034;-83
2023/12/29 04:44:16;;;;;;;11.43;2.40;;;;;;;10.10;100.00;100658.47;5016062;28;20073;-83
2023/12/29 04:46:42;;;;;;;11.75;2.80;;;;;;;10.11;99.85;100654.09;5017055;28;20408;-83
2023/12/29 04:49:07;;;;;;;14.65;2.53;;;;;;;10.00;99.46;100628.47;5018164;28;20044;-82
2023/12/29 04:51:33;;;;;;;16.45;4.15;;;;;;;9.94;99.97;100632.81;5016320;28;20050;-83
2023/12/29 04:53:58;;;;;;;11.20;2.63;;;;;;;10.07;99.33;100645.28;5016963;28;20034;-83
2023/12/29 04:56:24;;;;;;;7.93;2.30;;;;;;;9.92;99.51;100616.06;5016807;28;20061;-83
2023/12/29 04:58:51;;;;;;;11.20;2.60;;;;;;;10.07;99.09;100637.34;5016261;28;20049;-83
2023/12/29 05:01:17;;;;;;;10.82;2.75;;;;;;;10.11;98.56;100652.34;5016478;28;20034;-83
2023/12/29 05:03:42;;;;;;;10.25;3.20;;;;;;;10.06;99.27;100645.22;5017027;28;20378;-83
2023/12/29 05:06:07;;;;;;;9.57;2.60;;;;;;;10.04;99.71;100664.59;5017160;28;20034;-82
2023/12/29 05:08:33;;;;;;;10.77;2.88;;;;;;;9.94;99.79;100651.31;5016908;28;20034;-83
2023/12/29 05:10:58;;;;;;;11.57;3.28;;;;;;;10.03;99.46;100664.59;5017157;28;20470;-83
2023/12/29 05:13:24;;;;;;;15.68;2.58;;;;;;;9.84;99.58;100628.31;5015663;28;20065;-82
2023/12/29 05:15:49;;;;;;;12.70;3.20;;;;;;;9.95;99.84;100653.06;4998729;28;20050;-82
2023/12/29 05:18:14;;;;;;;14.75;3.08;;;;;;;9.79;99.89;100629.13;5015253;28;20030;-82
2023/12/29 05:20:40;;;;;;;7.47;2.10;;;;;;;9.97;100.00;100654.81;5017251;28;20084;-83
2023/12/29 05:23:05;;;;;;;15.65;2.72;;;;;;;9.87;100.00;100646.81;5019555;28;20033;-83
2023/12/29 05:25:31;;;;;;;13.05;2.60;;;;;;;9.99;100.00;100658.38;5015794;28;20034;-83
2023/12/29 05:27:56;;;;;;;9.00;2.20;;;;;;;9.95;100.00;100658.34;5016857;28;20486;-83
2023/12/29 05:30:21;;;;;;;10.68;2.50;;;;;;;9.96;100.00;100662.75;5015795;28;20390;-82
2023/12/29 05:32:47;;;;;;;13.20;3.10;;;;;;;9.88;100.00;100644.19;5016564;28;20099;-83
2023/12/29 05:35:12;;;;;;;12.57;2.70;;;;;;;9.86;100.00;100627.47;5015893;28;20057;-84
2023/12/29 05:37:38;;;;;;;14.00;2.83;;;;;;;9.92;100.00;100656.53;5015759;28;20402;-83
2023/12/29 05:40:03;;;;;;;12.15;2.50;;;;;;;9.82;100.00;100633.56;5014652;28;20371;-83
2023/12/29 05:42:29;;;;;;;10.98;2.42;;;;;;;9.88;100.00;100646.81;5015150;28;20038;-82
2023/12/29 05:44:55;;;;;;;10.07;2.42;;;;;;;9.82;100.00;100636.22;5016150;28;20486;-81
2023/12/29 05:47:20;;;;;;;12.90;2.70;;;;;;;9.72;100.00;100635.25;5015770;28;20029;-84
2023/12/29 05:49:46;;;;;;;9.55;2.65;;;;;;;9.75;100.00;100644.91;5015556;28;20037;-82
2023/12/29 05:52:11;;;;;;;12.77;3.00;;;;;;;9.76;100.00;100654.59;5014593;28;20030;-82
2023/12/29 05:54:36;;;;;;;11.43;2.45;;;;;;;9.76;100.00;100644.03;5014534;28;20072;-82
2023/12/29 05:57:02;;;;;;;12.52;2.58;;;;;;;9.65;100.00;100621.97;5015444;28;20034;-82
2023/12/29 05:59:28;;;;;;;11.98;2.35;;;;;;;9.76;100.00;100634.41;5015133;28;20387;-82
2023/12/29 06:01:53;;;;;;;11.05;2.60;;;;;;;9.67;100.00;100621.09;5015859;28;20466;-82
2023/12/29 06:04:18;;;;;;;14.73;2.60;;;;;;;9.79;100.00;100637.06;5014070;28;20041;-82
2023/12/29 06:06:45;;;;;;;16.65;2.72;;;;;;;9.78;100.00;100644.97;5014214;28;20088;-82
2023/12/29 06:09:11;;;;;;;13.27;2.45;;;;;;;9.68;100.00;100612.34;4997991;28;20445;-82
2023/12/29 06:11:36;;;;;;;15.02;2.67;;;;;;;9.61;100.00;100612.25;5014029;28;20424;-82
2023/12/29 06:14:02;;;;;;;7.43;2.30;;;;;;;9.77;100.00;100641.44;5013952;28;20153;-82
2023/12/29 06:16:29;;;;;;;12.30;2.38;;;;;;;9.62;100.00;100622.78;5014883;28;20466;-82
2023/12/29 06:18:55;;;;;;;7.25;1.98;;;;;;;9.75;100.00;100643.16;5015244;28;20177;-82
2023/12/29 06:21:20;;;;;;;14.43;2.65;;;;;;;9.52;100.00;100608.63;5015183;28;20125;-83
2023/12/29 06:23:46;;;;;;;10.85;2.72;;;;;;;9.72;100.00;100642.25;5015123;28;20030;-82
2023/12/29 06:26:19;;;;;;;13.00;2.70;;;;;;;9.67;100.00;100621.09;5014735;28;20045;-82
2023/12/29 06:28:45;;;;;;;12.30;2.90;;;;;;;9.68;100.00;100651.03;5014863;28;20073;-82
2023/12/29 06:31:11;;;;;;;8.52;2.50;;;;;;;9.64;100.00;100626.34;5013758;28;20084;-82
2023/12/29 06:33:36;;;;;;;10.52;2.65;;;;;;;9.71;100.00;100635.19;5014892;28;20454;-82
2023/12/29 06:36:02;;;;;;;8.65;2.50;;;;;;;9.62;100.00;100627.19;5013643;28;20037;-82
2023/12/29 06:38:28;;;;;;;11.63;2.70;;;;;;;9.70;100.00;100629.03;5014860;28;20172;-81
2023/12/29 06:40:53;;;;;;;12.63;2.60;;;;;;;9.79;100.00;100644.97;5013790;28;20461;-82
2023/12/29 06:43:19;;;;;;;8.68;2.60;;;;;;;9.71;100.00;100622.88;5014760;28;20045;-83
2023/12/29 06:45:44;;;;;;;12.52;2.65;;;;;;;9.88;100.00;100638.03;5014720;28;20038;-82
2023/12/29 06:48:09;;;;;;;8.98;2.40;;;;;;;9.88;100.00;100641.53;5013231;28;20141;-82
2023/12/29 06:50:36;;;;;;;10.10;2.38;;;;;;;9.85;100.00;100659.09;5014726;28;20121;-82
2023/12/29 06:53:02;;;;;;;14.73;2.58;;;;;;;9.87;100.00;100630.97;5012366;28;20478;-82
2023/12/29 06:55:28;;;;;;;9.05;2.72;;;;;;;9.77;100.00;100622.97;5015033;28;20165;-83
2023/12/29 06:57:53;;;;;;;8.95;2.55;;;;;;;9.87;100.00;100665.28;5013115;28;20113;-83
2023/12/29 07:00:19;;;;;;;8.95;2.13;;;;;;;9.87;100.00;100637.13;5014022;28;20042;-83
2023/12/29 07:02:44;;;;;;;10.50;2.25;;;;;;;9.68;100.00;100596.50;4980850;28;20049;-82
2023/12/29 07:05:10;;;;;;;7.57;2.35;;;;;;;9.75;100.00;100621.19;5014451;28;20180;-82
2023/12/29 07:07:37;;;;;;;8.80;2.42;;;;;;;9.81;100.00;100625.63;5014077;28;20034;-82
2023/12/29 07:10:03;;;;;;;8.13;2.42;;;;;;;9.82;100.00;100619.50;5014256;28;20037;-82
2023/12/29 07:12:29;;;;;;;8.73;2.33;;;;;;;9.83;100.00;100621.25;5014035;28;20144;-82
2023/12/29 07:14:54;;;;;;;10.93;2.72;;;;;;;9.78;100.00;100610.66;5012988;28;20038;-83
2023/12/29 07:17:20;;;;;;;12.25;2.30;;;;;;;9.64;100.00;100601.72;5014168;28;20386;-82
2023/12/29 07:19:45;;;;;;;8.75;2.22;;;;;;;9.75;100.00;100607.97;5012941;28;20073;-83
2023/12/29 07:22:11;;;;;;;8.32;2.28;;;;;;;9.80;100.00;100616.81;5012720;28;20026;-82
2023/12/29 07:24:36;;;;;;;8.27;2.63;;;;;;;9.65;100.00;100585.03;5012933;28;20038;-82
2023/12/29 07:27:02;;;;;;;8.10;2.88;;;;;;;9.70;100.00;100613.22;5013888;28;20041;-82
2023/12/29 07:29:28;;;;;;;10.27;2.40;;;;;;;9.64;100.00;100615.81;5013816;28;20034;-82
2023/12/29 07:31:53;;;;;;;10.50;2.50;;;;;;;9.72;100.00;100632.59;5014048;28;20037;-82
2023/12/29 07:34:19;;;;;;;10.45;2.40;;;;;;;9.73;100.00;100615.00;5013970;28;20034;-83
2023/12/29 07:36:45;;;;;;;9.18;2.55;;;;;;;9.76;100.00;100612.38;5013861;28;20109;-82
2023/12/29 07:39:10;;;;;;;10.55;2.53;;;;;;;9.47;100.00;100562.88;5013820;28;20112;-83
2023/12/29 07:41:42;;;;;;;10.05;2.20;;;;;;;9.73;100.00;100615.91;5013513;28;20061;-82
2023/12/29 07:44:12;;;;;;;9.75;2.58;;;;;;;9.82;100.00;100611.59;5013531;28;20022;-87
2023/12/29 07:46:38;;;;;;;5.45;1.88;;;;;;;9.86;100.00;100611.63;5012496;28;20037;-83
2023/12/29 07:49:04;;;;;;;6.40;2.35;;;;;;;9.88;100.00;100609.88;5012506;28;20068;-84
2023/12/29 07:51:30;;;;;;;9.55;2.33;;;;;;;9.93;100.00;100615.19;5012261;28;20045;-83
2023/12/29 07:53:55;;;;;;;10.65;2.30;;;;;;;9.83;100.00;100610.72;5013668;28;20124;-82
2023/12/29 07:56:21;;;;;;;10.02;2.33;;;;;;;9.89;100.00;100645.06;5012414;28;20034;-83
2023/12/29 07:58:46;;;;;;;9.32;2.10;;;;;;;9.74;100.00;100612.38;5013275;28;20084;-83
2023/12/29 08:01:11;;;;;;;4.97;2.05;;;;;;;9.94;100.00;100661.84;5013108;28;20073;-82
2023/12/29 08:03:37;;;;;;;7.28;2.30;;;;;;;9.80;100.00;100630.00;5013389;28;20057;-83
2023/12/29 08:06:02;;;;;;;6.28;2.17;;;;;;;9.69;100.00;100629.91;5012005;28;20490;-83
2023/12/29 08:08:27;;;;;;;7.55;2.40;;;;;;;9.84;100.00;100652.06;4996608;28;20049;-84
2023/12/29 08:10:53;;;;;;;8.35;2.10;;;;;;;9.81;100.00;100639.72;5013170;28;20034;-83
2023/12/29 08:13:18;;;;;;;5.45;2.17;;;;;;;9.89;100.00;100637.16;5011817;28;20034;-84
2023/12/29 08:15:44;;;;;;;5.72;2.30;;;;;;;9.87;100.00;100630.97;5012929;28;20036;-84
2023/12/29 08:18:10;;;;;;;8.52;2.00;;;;;;;9.88;100.00;100615.16;5012658;28;20192;-84
2023/12/29 08:20:36;;;;;;;5.55;2.05;;;;;;;9.90;100.00;100628.38;5013110;28;20467;-84
2023/12/29 08:23:02;;;;;;;6.05;2.08;;;;;;;9.89;100.00;100634.50;5011888;28;20037;-84
2023/12/29 08:25:28;;;;;;;5.93;1.80;;;;;;;9.86;100.00;100613.38;5013081;28;20471;-84
2023/12/29 08:27:54;;;;;;;4.68;1.90;;;;;;;9.89;100.00;100631.88;5012926;28;20045;-84
2023/12/29 08:30:19;;;;;;;4.55;1.77;;;;;;;9.82;100.00;100627.41;5011692;28;20038;-84
2023/12/29 08:32:45;;;;;;;5.57;1.83;;;;;;;9.71;100.00;100612.34;4995349;28;20467;-84
2023/12/29 08:35:10;;;;;;;6.07;2.05;;;;;;;9.81;100.00;100629.19;5011750;28;20041;-84
2023/12/29 08:37:36;;;;;;;6.50;1.92;;;;;;;9.89;100.00;100642.41;5011649;28;20049;-83
2023/12/29 08:40:01;;;;;;;6.22;2.00;;;;;;;9.92;100.00;100626.63;5011440;28;20038;-84
2023/12/29 08:42:28;;;;;;;6.75;1.92;;;;;;;9.90;100.00;100658.28;5012992;28;20044;-85
2023/12/29 08:44:53;;;;;;;6.75;1.90;;;;;;;9.94;100.00;100646.03;5011703;28;20042;-84
2023/12/29 08:47:19;;;;;;;6.85;2.08;;;;;;;9.88;100.00;100659.13;5011544;28;20103;-84
2023/12/29 08:49:44;;;;;;;4.57;1.77;;;;;;;9.71;100.00;100625.53;5011689;28;20037;-83
2023/12/29 08:52:09;;;;;;;5.10;1.77;;;;;;;9.91;100.00;100673.25;5011727;28;20033;-83
2023/12/29 08:54:36;;;;;;;6.15;2.00;;;;;;;9.89;100.00;100669.72;5012792;28;20042;-83
2023/12/29 08:57:03;;;;;;;6.40;2.05;;;;;;;9.91;100.00;100664.44;5012571;28;20034;-83
2023/12/29 08:59:28;;;;;;;3.95;1.83;;;;;;;9.82;100.00;100646.78;5011239;28;20457;-83
2023/12/29 09:01:56;;;;;;;4.18;1.70;;;;;;;9.86;100.00;100655.59;5011486;28;20065;-83
2023/12/29 09:04:21;;;;;;;4.13;1.63;;;;;;;9.76;100.00;100655.50;5011525;28;20038;-83
2023/12/29 09:06:47;;;;;;;7.65;2.10;;;;;;;9.91;100.00;100669.72;5011363;28;20030;-83
2023/12/29 09:09:12;;;;;;;6.68;1.80;;;;;;;9.83;100.00;100659.09;5011389;28;20030;-83
2023/12/29 09:11:47;;;;;;;6.35;1.80;;;;;;;9.88;100.00;100665.28;5012677;28;20029;-83
2023/12/29 09:14:13;;;;;;;3.00;1.52;;;;;;;9.78;100.00;100653.75;5011530;28;20026;-83
2023/12/29 09:16:40;;;;;;;4.57;1.55;;;;;;;9.82;100.00;100664.38;5012883;28;20398;-83
2023/12/29 09:19:05;;;;;;;2.30;1.50;;;;;;;9.82;100.00;100659.97;5014939;28;20026;-83
2023/12/29 09:21:30;;;;;;;5.07;1.80;;;;;;;9.78;100.00;100666.97;5014942;28;20045;-83
2023/12/29 09:23:56;;;;;;;6.75;1.90;;;;;;;9.77;100.00;100670.47;5016168;28;20390;-83
2023/12/29 09:26:21;;;;;;;3.13;1.40;;;;;;;9.77;100.00;100665.19;5015980;28;20030;-83
2023/12/29 09:28:47;;;;;;;3.38;1.60;;;;;;;9.74;100.00;100667.78;5014145;28;20042;-83
2023/12/29 09:31:13;;;;;;;4.72;1.65;;;;;;;9.63;100.00;100652.69;5014800;28;20041;-84
2023/12/29 09:33:38;;;;;;;6.68;1.80;;;;;;;9.72;100.00;100655.44;5015918;28;20481;-86
2023/12/29 09:36:04;;;;;;;3.17;1.40;;;;;;;9.73;100.00;100676.59;5015708;28;20140;-86
2023/12/29 09:38:30;;;;;;;5.05;1.55;;;;;;;9.68;100.00;100656.28;5015256;28;20111;-86
2023/12/29 09:40:59;;;;;;;3.60;1.40;;;;;;;9.69;100.00;100668.63;5015670;28;20467;-86
2023/12/29 09:43:31;;;;;;;5.40;1.88;;;;;;;9.81;100.00;100686.31;5014596;28;20026;-86
2023/12/29 09:45:58;;;;;;;5.80;1.53;;;;;;;9.79;100.00;100681.91;5015928;28;20034;-86
2023/12/29 09:48:27;;;;;;;2.28;1.60;;;;;;;9.52;100.00;100634.13;5015728;28;20038;-87
2023/12/29 09:50:54;;;;;;;4.93;1.70;;;;;;;9.84;100.00;100670.53;5015885;28;20026;-85
2023/12/29 09:53:26;;;;;;;2.42;1.67;;;;;;;9.89;100.00;100685.56;5015382;28;20041;-86
2023/12/29 09:55:52;;;;;;;3.20;1.60;;;;;;;9.94;100.00;100665.38;5014295;28;20026;-86
2023/12/29 09:58:21;;;;;;;2.65;1.50;;;;;;;9.95;100.00;100675.06;5015257;28;20037;-86
2023/12/29 10:00:49;;;;;;;5.93;1.90;;;;;;;10.01;100.00;100684.78;5015535;28;20072;-86
2023/12/29 10:03:14;;;;;;;3.72;1.50;;;;;;;10.01;100.00;100685.66;5015462;28;20033;-86
2023/12/29 10:05:39;;;;;;;4.35;1.48;;;;;;;10.01;100.00;100685.66;5014162;28;20068;-86
2023/12/29 10:08:09;;;;;;;2.72;1.50;;;;;;;9.97;100.00;100673.31;5014262;28;20029;-88
2023/12/29 10:10:38;;;;;;;4.82;1.83;;;;;;;10.04;100.00;100672.50;5015301;28;20084;-86
2023/12/29 10:13:06;;;;;;;2.65;1.55;;;;;;;10.18;100.00;100679.66;5014567;28;20037;-86
2023/12/29 10:15:40;;;;;;;4.32;1.67;;;;;;;10.19;100.00;100694.63;5014946;28;20057;-87
2023/12/29 10:18:21;;;;;;;4.82;1.52;;;;;;;10.18;100.00;100674.41;5014811;28;20053;-84
2023/12/29 10:21:06;;;;;;;3.15;1.42;;;;;;;10.24;100.00;100682.41;5014869;28;20033;-84
2023/12/29 10:23:46;;;;;;;3.92;1.60;;;;;;;10.28;100.00;100695.66;5015154;28;20485;-85
2023/12/29 10:26:11;;;;;;;2.58;1.40;;;;;;;10.32;100.00;100691.31;5014764;28;20030;-85
2023/12/29 10:28:37;;;;;;;2.88;1.40;;;;;;;10.31;100.00;100694.78;5014335;28;20041;-86
2023/12/29 10:31:04;;;;;;;2.53;1.42;;;;;;;10.38;100.00;100698.41;4997378;28;20097;-85
2023/12/29 10:33:32;;;;;;;1.52;1.40;;;;;;;10.41;100.00;100709.88;5013585;28;20030;-85
2023/12/29 10:36:07;;;;;;;3.63;1.50;;;;;;;10.34;100.00;100688.66;5014816;28;20037;-85
2023/12/29 10:38:33;;;;;;;2.58;1.20;;;;;;;10.48;100.00;100724.88;5013644;28;20386;-84
2023/12/29 10:41:11;;;;;;;3.22;1.45;;;;;;;10.52;100.00;100723.16;5015009;28;20150;-83
2023/12/29 10:43:36;;;;;;;4.45;1.60;;;;;;;10.52;100.00;100728.44;5013383;28;20065;-84
2023/12/29 10:46:09;;;;;;;3.58;1.52;;;;;;;10.45;100.00;100722.25;5013517;28;20065;-85
2023/12/29 10:48:35;;;;;;;4.90;1.73;;;;;;;10.50;100.00;100727.56;5013338;28;20040;-84
2023/12/29 10:51:06;;;;;;;3.50;1.58;;;;;;;10.51;100.00;100724.03;5014602;28;20080;-84
2023/12/29 10:53:35;;;;;;;3.63;1.50;;;;;;;10.44;100.00;100715.16;4997154;28;20088;-84
2023/12/29 10:56:01;;;;;;;3.83;1.70;;;;;;;10.52;100.00;100737.25;5014280;28;20470;-85
2023/12/29 10:58:31;;;;;;;3.03;1.52;;;;;;;10.54;100.00;100710.88;5014243;28;20079;-89
2023/12/29 11:00:57;;;;;;;6.65;1.73;;;;;;;10.49;100.00;100700.25;5013255;28;20041;-83
2023/12/29 11:03:23;;;;;;;6.68;1.98;;;;;;;10.60;100.00;100712.66;5012749;28;20034;-84
2023/12/29 11:05:49;;;;;;;7.30;1.80;;;;;;;10.47;100.00;100698.47;5012796;28;20030;-85
2023/12/29 11:08:19;;;;;;;5.22;1.70;;;;;;;10.55;100.00;100709.13;5014032;28;20041;-84
2023/12/29 11:10:48;;;;;;;7.60;2.00;;;;;;;10.65;100.00;100722.41;5014184;28;20057;-83
2023/12/29 11:13:14;;;;;;;7.43;2.10;;;;;;;10.60;100.00;100696.81;5014157;28;20038;-86
2023/12/29 11:15:45;;;;;;;4.82;1.88;;;;;;;10.56;100.00;100693.25;4996428;28;20040;-83